Time;durP1;ratioP1;P1;durP2;ratioP2;P2;SDS_P1;SDS_P2;PMS_P1;PMS_P2;Temp;Humidity;BMP_temperature;BMP_pressure;BME280_temperature;BME280_humidity;BME280_pressure;Samples;Min_cycle;Max_cycle;Signal;HPM_P1;HPM_P2
2024/03/27 00:00:41;;;;;;;;;;;;;;;8.11;51.48;98730.35;111385;1252;21940;-67
2024/03/27 00:03:30;;;;;;;;;;;;;;;8.10;51.65;98725.18;111314;1252;21931;-64
2024/03/27 00:06:00;;;;;;;;;;;;;;;8.09;51.65;98722.64;111344;1242;21933;-66
2024/03/27 00:08:29;;;;;;;;;;;;;;;8.08;51.78;98720.84;111360;1252;24308;-67
2024/03/27 00:10:58;;;;;;;;;;;;;;;8.09;51.93;98725.33;111333;1252;21933;-68
2024/03/27 00:13:26;;;;;;;;;;;;;;;8.08;51.94;98723.80;111483;1252;21931;-68
2024/03/27 00:15:55;;;;;;;;;;;;;;;8.08;51.83;98721.34;111614;1252;22029;-67
2024/03/27 00:18:23;;;;;;;;;;;;;;;8.08;52.09;98718.40;111572;1252;21946;-67
2024/03/27 00:20:52;;;;;;;;;;;;;;;8.07;51.85;98715.47;111568;1252;23670;-67
2024/03/27 00:23:20;;;;;;;;;;;;;;;8.05;51.94;98708.61;111525;1252;21953;-70
2024/03/27 00:25:56;;;;;;;;;;;;;;;8.04;51.90;98709.23;111529;1252;21943;-66
2024/03/27 00:28:25;;;;;;;;;;;;;;;8.04;51.96;98709.77;111535;1252;22005;-66
2024/03/27 00:30:54;;;;;;;;;;;;;;;8.04;52.00;98705.95;111281;1252;23545;-66
2024/03/27 19:57:10;;;;;;;8.00;4.50;;;;;;;16.46;44.45;98109.77;108557;1285;544458;-67
2024/03/27 19:59:38;;;;;;;8.40;4.90;;;;;;;16.48;43.34;98114.73;109980;1270;22074;-68
2024/03/27 20:02:07;;;;;;;5.10;3.50;;;;;;;16.43;43.16;98112.93;109867;1271;21974;-69
2024/03/27 20:04:36;;;;;;;7.50;4.50;;;;;;;16.36;43.11;98109.60;110243;1271;21975;-68
2024/03/27 20:07:05;;;;;;;9.10;5.60;;;;;;;16.31;42.96;98104.35;110125;1271;22001;-68
2024/03/27 20:09:35;;;;;;;7.40;4.80;;;;;;;16.25;42.93;98101.95;109855;1271;23041;-67
2024/03/27 20:12:05;;;;;;;8.40;4.60;;;;;;;16.21;43.22;98100.20;109965;1269;21958;-68
2024/03/27 20:14:35;;;;;;;8.70;4.60;;;;;;;16.11;43.17;98090.48;110200;1269;23608;-67
2024/03/27 20:17:04;;;;;;;9.20;5.30;;;;;;;16.01;43.40;98085.09;110223;1269;23168;-67
2024/03/27 20:19:33;;;;;;;7.90;5.50;;;;;;;15.90;43.36;98081.83;110189;1268;22090;-68
2024/03/27 20:22:03;;;;;;;6.60;3.90;;;;;;;15.81;43.67;98077.23;110240;1269;21975;-67
2024/03/27 20:24:32;;;;;;;5.90;3.60;;;;;;;15.72;43.81;98074.61;109911;1268;24186;-68
2024/03/27 20:27:01;;;;;;;10.00;4.50;;;;;;;15.67;44.01;98070.59;110306;1268;22177;-68
2024/03/27 20:29:30;;;;;;;9.80;4.10;;;;;;;15.61;43.98;98066.77;110294;1268;22673;-69
2024/03/27 20:31:59;;;;;;;4.90;3.70;;;;;;;15.52;44.26;98071.50;110385;1268;22006;-67
2024/03/27 20:34:27;;;;;;;10.60;5.10;;;;;;;15.47;44.43;98075.40;111129;1261;21974;-67
2024/03/27 20:36:56;;;;;;;5.00;3.80;;;;;;;15.43;44.42;98076.56;112172;1254;21994;-69
2024/03/27 20:39:25;;;;;;;7.40;4.30;;;;;;;15.41;44.52;98079.79;112181;1261;21997;-70
2024/03/27 20:41:54;;;;;;;6.10;4.40;;;;;;;15.40;44.40;98076.75;112245;1261;21978;-68
2024/03/27 20:44:23;;;;;;;24.90;22.30;;;;;;;15.40;44.41;98067.78;112046;1261;21990;-70
2024/03/27 20:46:52;;;;;;;8.80;5.30;;;;;;;15.40;44.53;98066.31;111739;1254;23015;-68
2024/03/27 20:49:21;;;;;;;6.00;3.60;;;;;;;15.39;44.60;98065.41;111571;1261;22108;-68
2024/03/27 20:51:50;;;;;;;7.30;4.40;;;;;;;15.36;44.81;98065.02;110959;1261;22293;-68
2024/03/27 20:54:19;;;;;;;5.70;3.50;;;;;;;15.32;44.82;98062.78;110774;1261;23031;-69
2024/03/27 20:56:47;;;;;;;7.80;4.40;;;;;;;15.26;44.98;98062.98;110687;1261;23602;-67
2024/03/27 20:59:16;;;;;;;8.40;4.90;;;;;;;15.18;45.22;98062.05;110737;1248;23135;-67
2024/03/27 21:01:46;;;;;;;9.60;5.60;;;;;;;15.11;45.29;98060.45;110587;1261;21967;-67
2024/03/27 21:04:15;;;;;;;9.80;7.10;;;;;;;15.06;45.47;98057.55;110622;1261;21943;-67
2024/03/27 21:06:44;;;;;;;13.50;6.30;;;;;;;15.02;45.70;98057.44;110769;1261;23028;-67
2024/03/27 21:09:13;;;;;;;12.20;6.00;;;;;;;14.95;45.88;98058.65;110694;1261;22309;-67
2024/03/27 21:11:41;;;;;;;10.20;5.20;;;;;;;14.91;46.02;98066.45;110719;1261;23611;-69
2024/03/27 21:14:10;;;;;;;8.20;5.50;;;;;;;14.87;46.19;98065.65;110566;1261;23197;-67
2024/03/27 21:16:38;;;;;;;8.80;5.20;;;;;;;14.85;46.31;98063.64;110364;1261;21985;-69
2024/03/27 21:19:07;;;;;;;8.10;5.00;;;;;;;14.81;46.51;98064.90;110560;1261;21977;-68
2024/03/27 21:21:36;;;;;;;15.70;5.30;;;;;;;14.78;46.59;98059.64;110777;1261;21970;-68
2024/03/27 21:24:05;;;;;;;8.60;4.90;;;;;;;14.73;46.84;98055.95;110644;1261;23650;-69
2024/03/27 21:26:33;;;;;;;11.60;5.40;;;;;;;14.67;46.97;98053.11;110714;1261;21978;-68
2024/03/27 21:29:02;;;;;;;16.80;5.60;;;;;;;14.63;47.24;98042.12;110445;1261;23441;-68
2024/03/27 21:31:31;;;;;;;10.10;4.50;;;;;;;14.61;47.34;98040.50;110420;1261;23681;-69
2024/03/27 21:34:00;;;;;;;9.30;5.40;;;;;;;14.59;47.45;98038.89;110430;1261;21965;-67
2024/03/27 21:36:38;;;;;;;9.10;5.10;;;;;;;14.57;47.47;98033.05;110786;1257;21974;-67
2024/03/27 21:39:07;;;;;;;11.30;5.40;;;;;;;14.54;47.56;98030.87;110678;1261;21993;-68
2024/03/27 21:41:39;;;;;;;8.70;5.00;;;;;;;14.51;47.73;98030.23;110659;1260;22071;-68
2024/03/27 21:44:07;;;;;;;11.40;5.70;;;;;;;14.49;47.60;98033.19;110693;1261;21974;-67
2024/03/27 21:46:36;;;;;;;8.40;4.90;;;;;;;14.48;47.69;98034.10;110413;1261;21964;-68
2024/03/27 21:49:05;;;;;;;9.40;5.40;;;;;;;14.47;47.55;98028.66;110732;1261;21974;-70
2024/03/27 21:51:34;;;;;;;12.70;6.80;;;;;;;14.44;47.77;98027.11;110657;1261;22008;-68
2024/03/27 21:54:03;;;;;;;8.80;6.00;;;;;;;14.43;47.57;98023.17;110402;1261;24110;-67
2024/03/27 21:56:33;;;;;;;12.20;6.90;;;;;;;14.40;47.76;98019.58;110675;1261;21987;-68
2024/03/27 21:59:01;;;;;;;18.90;8.00;;;;;;;14.38;47.81;98019.48;110673;1261;22210;-68
2024/03/27 22:01:30;;;;;;;14.30;7.00;;;;;;;14.37;47.78;98021.40;110698;1261;22172;-69
2024/03/27 22:03:59;;;;;;;8.20;4.80;;;;;;;14.35;47.74;98021.29;110746;1260;23198;-68
2024/03/27 22:06:27;;;;;;;16.20;4.80;;;;;;;14.33;47.74;98017.63;110712;1260;21958;-67
2024/03/27 22:08:56;;;;;;;6.30;4.70;;;;;;;14.32;47.79;98015.98;110729;1260;23588;-68
2024/03/27 22:11:25;;;;;;;15.80;4.20;;;;;;;14.30;47.73;98018.74;110684;1260;21971;-63
2024/03/27 22:13:53;;;;;;;7.00;4.80;;;;;;;14.29;47.73;98013.91;110385;1260;21964;-69
2024/03/27 22:16:22;;;;;;;6.10;4.10;;;;;;;14.27;47.77;98011.16;110762;1260;23061;-70
2024/03/27 22:18:51;;;;;;;6.20;4.30;;;;;;;14.24;47.88;98009.86;110689;1255;22428;-71
2024/03/27 22:21:20;;;;;;;6.30;4.50;;;;;;;14.22;48.04;98013.73;110408;1265;21975;-68
2024/03/27 22:23:53;;;;;;;5.00;4.20;;;;;;;14.19;48.10;98013.77;110384;1265;23020;-67
2024/03/27 22:26:23;;;;;;;8.20;4.60;;;;;;;14.16;48.10;98012.55;110411;1265;22030;-68
2024/03/27 22:28:51;;;;;;;6.70;4.80;;;;;;;14.13;48.27;98000.30;110473;1265;21954;-68
2024/03/27 22:31:26;;;;;;;8.40;5.40;;;;;;;14.07;48.42;97998.53;110381;1265;23055;-68
2024/03/27 22:33:54;;;;;;;11.50;5.60;;;;;;;14.01;48.69;97996.79;110258;1265;21976;-68
2024/03/27 22:36:23;;;;;;;10.70;4.90;;;;;;;13.96;48.80;98000.20;110387;1265;21979;-67
2024/03/27 22:38:52;;;;;;;12.80;5.80;;;;;;;13.92;48.87;97999.09;110394;1260;21961;-68
2024/03/27 22:41:21;;;;;;;7.70;5.00;;;;;;;13.86;49.15;97997.68;110706;1260;21960;-67
2024/03/27 22:43:50;;;;;;;10.10;6.20;;;;;;;13.81;49.21;97997.15;110702;1257;21970;-68
2024/03/27 22:46:19;;;;;;;8.60;5.70;;;;;;;13.79;49.30;97997.01;110679;1260;23656;-69
2024/03/27 22:48:47;;;;;;;9.60;5.40;;;;;;;13.75;49.28;98001.73;110708;1260;22189;-67
2024/03/27 22:51:28;;;;;;;9.20;7.20;;;;;;;13.68;49.47;98000.77;110746;1260;22746;-69
2024/03/27 22:53:57;;;;;;;10.20;6.40;;;;;;;13.61;50.01;97995.65;110454;1260;21962;-67
2024/03/27 22:56:26;;;;;;;13.70;7.30;;;;;;;13.57;49.90;97995.64;110738;1260;21972;-67
2024/03/27 22:58:54;;;;;;;12.70;6.70;;;;;;;13.55;49.96;97996.59;110396;1260;21972;-67
2024/03/27 23:01:23;;;;;;;12.60;7.70;;;;;;;13.50;50.25;97993.38;110478;1260;22396;-67
2024/03/27 23:03:52;;;;;;;11.50;7.50;;;;;;;13.46;50.03;97993.50;110484;1260;23025;-67
2024/03/27 23:06:21;;;;;;;9.40;7.20;;;;;;;13.43;50.28;97982.93;110809;1260;21968;-68
2024/03/27 23:08:50;;;;;;;9.70;7.30;;;;;;;13.38;50.53;97979.60;110727;1260;22959;-68
2024/03/27 23:11:18;;;;;;;9.20;7.20;;;;;;;13.33;50.68;97981.84;110720;1260;21964;-69
2024/03/27 23:13:47;;;;;;;13.40;8.10;;;;;;;13.27;50.82;97980.09;110727;1260;23032;-69
2024/03/27 23:16:15;;;;;;;10.00;7.90;;;;;;;13.22;50.89;97973.89;110731;1258;22154;-69
2024/03/27 23:18:44;;;;;;;11.30;7.60;;;;;;;13.17;51.16;97974.67;110710;1260;22932;-68
2024/03/27 23:21:13;;;;;;;12.30;7.80;;;;;;;13.09;51.53;97979.70;110780;1260;23694;-67
2024/03/27 23:23:41;;;;;;;13.10;7.70;;;;;;;13.02;51.64;97979.33;110851;1260;24600;-68
2024/03/27 23:26:10;;;;;;;10.10;7.70;;;;;;;12.96;51.98;97979.99;110727;1260;21950;-70
2024/03/27 23:28:38;;;;;;;13.60;8.30;;;;;;;12.88;52.33;97974.00;110745;1260;22437;-69
2024/03/27 23:31:08;;;;;;;19.40;8.10;;;;;;;12.79;53.01;97974.64;110719;1258;23588;-69
2024/03/27 23:33:36;;;;;;;15.70;8.90;;;;;;;12.71;53.17;97973.77;110658;1247;23026;-68
2024/03/27 23:36:06;;;;;;;14.00;9.00;;;;;;;12.66;53.11;97969.08;110706;1260;21962;-68
2024/03/27 23:38:34;;;;;;;13.90;9.20;;;;;;;12.61;53.12;97973.38;110574;1259;22040;-69
2024/03/27 23:41:03;;;;;;;13.50;9.30;;;;;;;12.57;53.33;97971.37;110663;1260;21972;-67
2024/03/27 23:43:32;;;;;;;12.80;8.80;;;;;;;12.47;53.70;97969.12;110679;1260;24322;-68
2024/03/27 23:46:00;;;;;;;13.10;9.50;;;;;;;12.42;53.52;97967.82;110772;1248;22029;-69
2024/03/27 23:48:29;;;;;;;21.20;9.60;;;;;;;12.38;53.93;97964.23;110714;1260;21984;-68
2024/03/27 23:51:03;;;;;;;16.40;9.10;;;;;;;12.35;54.14;97962.63;110726;1260;22054;-69
2024/03/27 23:53:32;;;;;;;16.10;9.50;;;;;;;12.32;53.96;97959.21;110756;1260;22005;-68
2024/03/27 23:56:00;;;;;;;14.10;9.60;;;;;;;12.33;53.76;97957.55;110730;1260;22002;-70
2024/03/27 23:58:30;;;;;;;14.60;10.10;;;;;;;12.32;53.80;97954.29;110693;1260;21965;-68
